Kvb Empire — PD5101 — position and weather

sailwx.info

Track history (hours):
 
Tides and Currents Weather Stations Pressure Air Temp Water Temp Dewpoint Dewpoint Depression Visibility Wind Speed Wind Dir Waves Ship Positions

Kvb Empire

Last reported at 2016-Jun-28 23:34 UTC. Time now 2016-Jun-29 00:19 UTC.
Position N 51°45' E 004°38'.

Length 183 m; draft 2.8 m.

Type: Ship. MMSI: 244670090.

Date/timePositionNaut miles runAvg speedWind from/ knotsBaromVisibWave heightAir tempDewpointWater temp
2016-Jun-28 23:34N 51°45' E 004°38'0 0.0
2016-Jun-28 22:34N 51°45' E 004°38'0 0.0
2016-Jun-28 21:34N 51°45' E 004°38'0 0.0
2016-Jun-28 20:34N 51°45' E 004°38'0 0.0
2016-Jun-28 19:33N 51°45' E 004°38'0 0.0
2016-Jun-28 18:34N 51°45' E 004°38'0 0.0
2016-Jun-28 17:33N 51°45' E 004°38'0 0.0
2016-Jun-28 16:34N 51°45' E 004°38'3 2.8
2016-Jun-28 15:33N 51°43' E 004°36'11 4.8
2016-Jun-28 13:16N 51°39' E 004°19'6 6.6
2016-Jun-28 12:18N 51°35' E 004°13'6 7.9
2016-Jun-28 11:31N 51°28' E 004°14'2 2.0
2016-Jun-28 10:34N 51°27' E 004°14'5 4.6
2016-Jun-28 09:33N 51°22' E 004°17'6 6.2
2016-Jun-28 08:34N 51°17' E 004°21'0 0.0
2016-Jun-28 07:34N 51°17' E 004°21'0 0.0
2016-Jun-28 06:34N 51°17' E 004°21'0 0.0
2016-Jun-28 04:33N 51°17' E 004°21'0 0.0
2016-Jun-28 03:34N 51°17' E 004°21'0 0.0
2016-Jun-28 02:33N 51°17' E 004°21'0 0.0
2016-Jun-28 01:33N 51°17' E 004°21'0 0.1
2016-Jun-28 00:34N 51°17' E 004°21'1 1.2
2016-Jun-27 23:34N 51°17' E 004°19'2 2.0
2016-Jun-27 22:34N 51°18' E 004°16'1 0.8
2016-Jun-27 21:33N 51°17' E 004°16'0 0.4
2016-Jun-27 20:34N 51°18' E 004°16'1 1.1
2016-Jun-27 19:33N 51°19' E 004°17'0 0.0
2016-Jun-27 18:33N 51°19' E 004°17'0 0.0
2016-Jun-27 17:33N 51°19' E 004°17'2 2.2
2016-Jun-27 16:33N 51°21' E 004°16'0 0.0
2016-Jun-27 15:33N 51°21' E 004°16'3 3.3
2016-Jun-27 14:34N 51°18' E 004°16'2 2.4
2016-Jun-27 13:34N 51°20' E 004°17'1 0.7
2016-Jun-27 12:33N 51°21' E 004°17'1 1.4
2016-Jun-27 11:33N 51°20' E 004°19'0 0.2
2016-Jun-27 10:33N 51°19' E 004°19'0 0.4
2016-Jun-27 09:33N 51°19' E 004°19'0 0.0
2016-Jun-27 08:33N 51°19' E 004°19'0 0.2
2016-Jun-27 07:34N 51°19' E 004°19'0 0.1
2016-Jun-27 06:33N 51°19' E 004°19'0 0.2
2016-Jun-27 05:33N 51°19' E 004°19'3 3.2
2016-Jun-27 04:33N 51°16' E 004°21'0 0.0
2016-Jun-27 03:33N 51°16' E 004°21'0 0.0
2016-Jun-27 02:33N 51°16' E 004°21'0 0.0
2016-Jun-27 01:33N 51°16' E 004°21'0 0.0
2016-Jun-27 00:33N 51°16' E 004°21'0 0.0
2016-Jun-26 23:33N 51°16' E 004°21'0 0.0
2016-Jun-26 22:33N 51°16' E 004°21'0 0.0
2016-Jun-26 21:33N 51°16' E 004°21'0 0.0
2016-Jun-26 20:33N 51°16' E 004°21'0 0.0
2016-Jun-26 19:33N 51°16' E 004°21'0 0.0
2016-Jun-26 18:33N 51°16' E 004°21'1 1.0
2016-Jun-26 17:33N 51°17' E 004°20'6 5.9
2016-Jun-26 16:33N 51°22' E 004°17'15 4.8
2016-Jun-26 13:21N 51°38' E 004°13'6 7.0
2016-Jun-26 12:26N 51°40' E 004°22'2 2.6
2016-Jun-26 11:31N 51°42' E 004°25'3 3.1
2016-Jun-26 10:32N 51°42' E 004°30'6 6.4
2016-Jun-26 09:33N 51°46' E 004°38'4 4.3
2016-Jun-26 08:34N 51°49' E 004°41'6 6.4
2016-Jun-26 07:33N 51°49' E 004°52'8 7.4
2016-Jun-26 06:31N 51°50' E 005°04'8 8.3
2016-Jun-26 05:30N 51°49' E 005°18'29 6.8
2016-Jun-26 01:11N 51°51' E 006°05'7 9.0
2016-Jun-26 00:27N 51°49' E 006°16'22 7.1
2016-Jun-25 21:24N 51°34' E 006°41'19 6.7
2016-Jun-25 18:33N 51°15' E 006°45'5 5.2
2016-Jun-25 17:33N 51°11' E 006°48'15 6.7
2016-Jun-25 15:22N 50°58' E 006°59'  
2016-Jun-23 07:17N 50°04' E 008°32'7 4.1
2016-Jun-23 05:31N 50°06' E 008°42'1 0.5
2016-Jun-23 03:13N 50°07' E 008°44'0 0.0
2016-Jun-23 02:18N 50°07' E 008°44'0 0.0
2016-Jun-23 01:32N 50°07' E 008°44'0 0.0
2016-Jun-23 00:32N 50°07' E 008°44'0 0.0
2016-Jun-22 23:33N 50°07' E 008°44'0 0.0
2016-Jun-22 22:32N 50°07' E 008°44'0 0.0
2016-Jun-22 21:31N 50°07' E 008°44'0 0.0
2016-Jun-22 19:22N 50°07' E 008°44'2 2.9
2016-Jun-22 18:33N 50°08' E 008°47'4 3.8
2016-Jun-22 17:33N 50°07' E 008°53'3 3.5
2016-Jun-22 16:33N 50°05' E 008°57'0 0.0
2016-Jun-22 15:33N 50°05' E 008°57'0 0.0
2016-Jun-22 14:33N 50°05' E 008°57'0 0.0
2016-Jun-22 13:33N 50°05' E 008°57'0 0.0
2016-Jun-22 12:33N 50°05' E 008°57'0 0.0
2016-Jun-22 11:33N 50°05' E 008°57'0 0.0
2016-Jun-22 10:33N 50°05' E 008°57'0 0.0
2016-Jun-22 09:32N 50°05' E 008°57'0 0.0
2016-Jun-22 08:33N 50°05' E 008°57'0 0.0
2016-Jun-22 07:33N 50°05' E 008°57'0 0.0
2016-Jun-22 06:33N 50°05' E 008°57'0 0.0
2016-Jun-22 05:33N 50°05' E 008°57'0 0.0
2016-Jun-22 04:33N 50°05' E 008°57'0 0.0
2016-Jun-22 03:33N 50°05' E 008°57'0 0.0
2016-Jun-22 02:33N 50°05' E 008°57'0 0.0
2016-Jun-22 01:33N 50°05' E 008°57'0 0.0
2016-Jun-22 00:33N 50°05' E 008°57'0 0.0
2016-Jun-21 23:33N 50°05' E 008°57'0 0.0
2016-Jun-21 22:33N 50°05' E 008°57'0 0.0
2016-Jun-21 21:33N 50°05' E 008°57'0 0.0
2016-Jun-21 20:33N 50°05' E 008°57'0 0.0
2016-Jun-21 19:33N 50°05' E 008°57'0 0.0
2016-Jun-21 18:33N 50°05' E 008°57'0 0.0
2016-Jun-21 17:33N 50°05' E 008°57'0 0.0
2016-Jun-21 16:33N 50°05' E 008°57'0 0.0
2016-Jun-21 15:33N 50°05' E 008°57'0 0.0
2016-Jun-21 14:33N 50°05' E 008°57'0 0.0
2016-Jun-21 13:33N 50°05' E 008°57'0 0.0
2016-Jun-21 12:33N 50°05' E 008°57'0 0.0
2016-Jun-21 11:33N 50°05' E 008°57'0 0.1
2016-Jun-21 10:33N 50°05' E 008°57'0 0.0
2016-Jun-21 09:33N 50°05' E 008°57'0 0.0
2016-Jun-21 08:33N 50°05' E 008°57'0 0.0
2016-Jun-21 07:33N 50°05' E 008°57'0 0.0
2016-Jun-21 06:33N 50°05' E 008°57'0 0.0
2016-Jun-21 04:33N 50°05' E 008°57'0 0.0
2016-Jun-21 03:33N 50°05' E 008°57'0 0.0
2016-Jun-21 02:33N 50°05' E 008°57'0 0.0
2016-Jun-21 01:32N 50°05' E 008°57'0 0.0
2016-Jun-21 00:33N 50°05' E 008°57'0 0.0
2016-Jun-20 23:33N 50°05' E 008°57'0 0.0
2016-Jun-20 22:33N 50°05' E 008°57'0 0.0
2016-Jun-20 21:33N 50°05' E 008°57'0 0.0
2016-Jun-20 20:33N 50°05' E 008°57'0 0.0
2016-Jun-20 19:33N 50°05' E 008°57'0 0.0
2016-Jun-20 18:33N 50°05' E 008°57'0 0.0
2016-Jun-20 17:33N 50°05' E 008°57'0 0.0
2016-Jun-20 16:33N 50°05' E 008°57'0 0.0
2016-Jun-20 15:33N 50°05' E 008°57'1 1.1
2016-Jun-20 14:33N 50°06' E 008°56'3 3.0
2016-Jun-20 13:33N 50°08' E 008°52'2 2.5
2016-Jun-20 12:33N 50°08' E 008°48'3 2.8
2016-Jun-20 11:33N 50°07' E 008°45'3 2.6
2016-Jun-20 10:32N 50°06' E 008°40'3 3.0
2016-Jun-20 09:24N 50°05' E 008°35'  
Track history (hours):
 
Tides and Currents Weather Stations Pressure Air Temp Water Temp Dewpoint Dewpoint Depression Visibility Wind Speed Wind Dir Waves Ship Positions

Kvb Empire

Last reported at 2016-Jun-28 23:34 UTC. Time now 2016-Jun-29 00:19 UTC.
Position N 51°45' E 004°38'.

Length 183 m; draft 2.8 m.

Type: Ship. MMSI: 244670090.

Date/timePositionNaut miles runAvg speedWind from/ knotsBaromVisibWave heightAir tempDewpointWater temp
2016-Jun-28 23:34N 51°45' E 004°38'0 0.0
2016-Jun-28 22:34N 51°45' E 004°38'0 0.0
2016-Jun-28 21:34N 51°45' E 004°38'0 0.0
2016-Jun-28 20:34N 51°45' E 004°38'0 0.0
2016-Jun-28 19:33N 51°45' E 004°38'0 0.0
2016-Jun-28 18:34N 51°45' E 004°38'0 0.0
2016-Jun-28 17:33N 51°45' E 004°38'0 0.0
2016-Jun-28 16:34N 51°45' E 004°38'3 2.8
2016-Jun-28 15:33N 51°43' E 004°36'11 4.8
2016-Jun-28 13:16N 51°39' E 004°19'6 6.6
2016-Jun-28 12:18N 51°35' E 004°13'6 7.9
2016-Jun-28 11:31N 51°28' E 004°14'2 2.0
2016-Jun-28 10:34N 51°27' E 004°14'5 4.6
2016-Jun-28 09:33N 51°22' E 004°17'6 6.2
2016-Jun-28 08:34N 51°17' E 004°21'0 0.0
2016-Jun-28 07:34N 51°17' E 004°21'0 0.0
2016-Jun-28 06:34N 51°17' E 004°21'0 0.0
2016-Jun-28 04:33N 51°17' E 004°21'0 0.0
2016-Jun-28 03:34N 51°17' E 004°21'0 0.0
2016-Jun-28 02:33N 51°17' E 004°21'0 0.0
2016-Jun-28 01:33N 51°17' E 004°21'0 0.1
2016-Jun-28 00:34N 51°17' E 004°21'1 1.2
2016-Jun-27 23:34N 51°17' E 004°19'2 2.0
2016-Jun-27 22:34N 51°18' E 004°16'1 0.8
2016-Jun-27 21:33N 51°17' E 004°16'0 0.4
2016-Jun-27 20:34N 51°18' E 004°16'1 1.1
2016-Jun-27 19:33N 51°19' E 004°17'0 0.0
2016-Jun-27 18:33N 51°19' E 004°17'0 0.0
2016-Jun-27 17:33N 51°19' E 004°17'2 2.2
2016-Jun-27 16:33N 51°21' E 004°16'0 0.0
2016-Jun-27 15:33N 51°21' E 004°16'3 3.3
2016-Jun-27 14:34N 51°18' E 004°16'2 2.4
2016-Jun-27 13:34N 51°20' E 004°17'1 0.7
2016-Jun-27 12:33N 51°21' E 004°17'1 1.4
2016-Jun-27 11:33N 51°20' E 004°19'0 0.2
2016-Jun-27 10:33N 51°19' E 004°19'0 0.4
2016-Jun-27 09:33N 51°19' E 004°19'0 0.0
2016-Jun-27 08:33N 51°19' E 004°19'0 0.2
2016-Jun-27 07:34N 51°19' E 004°19'0 0.1
2016-Jun-27 06:33N 51°19' E 004°19'0 0.2
2016-Jun-27 05:33N 51°19' E 004°19'3 3.2
2016-Jun-27 04:33N 51°16' E 004°21'0 0.0
2016-Jun-27 03:33N 51°16' E 004°21'0 0.0
2016-Jun-27 02:33N 51°16' E 004°21'0 0.0
2016-Jun-27 01:33N 51°16' E 004°21'0 0.0
2016-Jun-27 00:33N 51°16' E 004°21'0 0.0
2016-Jun-26 23:33N 51°16' E 004°21'0 0.0
2016-Jun-26 22:33N 51°16' E 004°21'0 0.0
2016-Jun-26 21:33N 51°16' E 004°21'0 0.0
2016-Jun-26 20:33N 51°16' E 004°21'0 0.0
2016-Jun-26 19:33N 51°16' E 004°21'0 0.0
2016-Jun-26 18:33N 51°16' E 004°21'1 1.0
2016-Jun-26 17:33N 51°17' E 004°20'6 5.9
2016-Jun-26 16:33N 51°22' E 004°17'15 4.8
2016-Jun-26 13:21N 51°38' E 004°13'6 7.0
2016-Jun-26 12:26N 51°40' E 004°22'2 2.6
2016-Jun-26 11:31N 51°42' E 004°25'3 3.1
2016-Jun-26 10:32N 51°42' E 004°30'6 6.4
2016-Jun-26 09:33N 51°46' E 004°38'4 4.3
2016-Jun-26 08:34N 51°49' E 004°41'6 6.4
2016-Jun-26 07:33N 51°49' E 004°52'8 7.4
2016-Jun-26 06:31N 51°50' E 005°04'8 8.3
2016-Jun-26 05:30N 51°49' E 005°18'29 6.8
2016-Jun-26 01:11N 51°51' E 006°05'7 9.0
2016-Jun-26 00:27N 51°49' E 006°16'22 7.1
2016-Jun-25 21:24N 51°34' E 006°41'19 6.7
2016-Jun-25 18:33N 51°15' E 006°45'5 5.2
2016-Jun-25 17:33N 51°11' E 006°48'15 6.7
2016-Jun-25 15:22N 50°58' E 006°59'  
2016-Jun-23 07:17N 50°04' E 008°32'7 4.1
2016-Jun-23 05:31N 50°06' E 008°42'1 0.5
2016-Jun-23 03:13N 50°07' E 008°44'0 0.0
2016-Jun-23 02:18N 50°07' E 008°44'0 0.0
2016-Jun-23 01:32N 50°07' E 008°44'0 0.0
2016-Jun-23 00:32N 50°07' E 008°44'0 0.0
2016-Jun-22 23:33N 50°07' E 008°44'0 0.0
2016-Jun-22 22:32N 50°07' E 008°44'0 0.0
2016-Jun-22 21:31N 50°07' E 008°44'0 0.0
2016-Jun-22 19:22N 50°07' E 008°44'2 2.9
2016-Jun-22 18:33N 50°08' E 008°47'4 3.8
2016-Jun-22 17:33N 50°07' E 008°53'3 3.5
2016-Jun-22 16:33N 50°05' E 008°57'0 0.0
2016-Jun-22 15:33N 50°05' E 008°57'0 0.0
2016-Jun-22 14:33N 50°05' E 008°57'0 0.0
2016-Jun-22 13:33N 50°05' E 008°57'0 0.0
2016-Jun-22 12:33N 50°05' E 008°57'0 0.0
2016-Jun-22 11:33N 50°05' E 008°57'0 0.0
2016-Jun-22 10:33N 50°05' E 008°57'0 0.0
2016-Jun-22 09:32N 50°05' E 008°57'0 0.0
2016-Jun-22 08:33N 50°05' E 008°57'0 0.0
2016-Jun-22 07:33N 50°05' E 008°57'0 0.0
2016-Jun-22 06:33N 50°05' E 008°57'0 0.0
2016-Jun-22 05:33N 50°05' E 008°57'0 0.0
2016-Jun-22 04:33N 50°05' E 008°57'0 0.0
2016-Jun-22 03:33N 50°05' E 008°57'0 0.0
2016-Jun-22 02:33N 50°05' E 008°57'0 0.0
2016-Jun-22 01:33N 50°05' E 008°57'0 0.0
2016-Jun-22 00:33N 50°05' E 008°57'0 0.0
2016-Jun-21 23:33N 50°05' E 008°57'0 0.0
2016-Jun-21 22:33N 50°05' E 008°57'0 0.0
2016-Jun-21 21:33N 50°05' E 008°57'0 0.0
2016-Jun-21 20:33N 50°05' E 008°57'0 0.0
2016-Jun-21 19:33N 50°05' E 008°57'0 0.0
2016-Jun-21 18:33N 50°05' E 008°57'0 0.0
2016-Jun-21 17:33N 50°05' E 008°57'0 0.0
2016-Jun-21 16:33N 50°05' E 008°57'0 0.0
2016-Jun-21 15:33N 50°05' E 008°57'0 0.0
2016-Jun-21 14:33N 50°05' E 008°57'0 0.0
2016-Jun-21 13:33N 50°05' E 008°57'0 0.0
2016-Jun-21 12:33N 50°05' E 008°57'0 0.0
2016-Jun-21 11:33N 50°05' E 008°57'0 0.1
2016-Jun-21 10:33N 50°05' E 008°57'0 0.0
2016-Jun-21 09:33N 50°05' E 008°57'0 0.0
2016-Jun-21 08:33N 50°05' E 008°57'0 0.0
2016-Jun-21 07:33N 50°05' E 008°57'0 0.0
2016-Jun-21 06:33N 50°05' E 008°57'0 0.0
2016-Jun-21 04:33N 50°05' E 008°57'0 0.0
2016-Jun-21 03:33N 50°05' E 008°57'0 0.0
2016-Jun-21 02:33N 50°05' E 008°57'0 0.0
2016-Jun-21 01:32N 50°05' E 008°57'0 0.0
2016-Jun-21 00:33N 50°05' E 008°57'0 0.0
2016-Jun-20 23:33N 50°05' E 008°57'0 0.0
2016-Jun-20 22:33N 50°05' E 008°57'0 0.0
2016-Jun-20 21:33N 50°05' E 008°57'0 0.0
2016-Jun-20 20:33N 50°05' E 008°57'0 0.0
2016-Jun-20 19:33N 50°05' E 008°57'0 0.0
2016-Jun-20 18:33N 50°05' E 008°57'0 0.0
2016-Jun-20 17:33N 50°05' E 008°57'0 0.0
2016-Jun-20 16:33N 50°05' E 008°57'0 0.0
2016-Jun-20 15:33N 50°05' E 008°57'1 1.1
2016-Jun-20 14:33N 50°06' E 008°56'3 3.0
2016-Jun-20 13:33N 50°08' E 008°52'2 2.5
2016-Jun-20 12:33N 50°08' E 008°48'3 2.8
2016-Jun-20 11:33N 50°07' E 008°45'3 2.6
2016-Jun-20 10:32N 50°06' E 008°40'3 3.0
2016-Jun-20 09:24N 50°05' E 008°35'  

Dump ship's entire track history